»·PEaware :: N4306H KAVX-KSAN

N4306H :: KAVX-KSAN

FLIGHT INFORMATION

Flight Status: Arrived
Operator: Privately registered:
United States
More flights under this callsign
Pilot: Lauro R. (32390)
Aircraft: MOONEY M-20 201 202 205 220 ATS MSE
(M20P)
More flights by this aircraft type
Origin: KAVX Catalina
United States
Destination: KSAN San Diego Intl-Lindbergh
United States
More flights between these airports :: More routes between these airports
Route: SXC V208 OCN V23 MZB
File this flight plan on PilotEdge
Remarks: TEC route CSTP57
Altitude:
(Current/Filed)
5,000ft
Speed:
(Current/Filed)
150kts
Departed: 19-Nov-20 02:47 PM
Arrived: 19-Nov-20 03:36 PM
Distance/Time
Traveled:
74nm/0:49
Distance/Time
To Go:
Arrived

Flight Plot

Page will automatically refresh every two minutes.


Map Options




Map Legend


Flown Route
Filed Route
Departure Airport
Arrival Airport
Navaid (VOR, NDB)
Fix

Horizontal Profiles

Position Reports

Time Latitude Longitude Heading Altitude Ground
Speed
19-Nov-20 14:23 33.404378 -118.414719 262 1539ft 0kts
19-Nov-20 14:24 33.404378 -118.414719 262 1539ft 0kts
19-Nov-20 14:25 33.404378 -118.414719 262 1539ft 0kts
19-Nov-20 14:26 33.404378 -118.414719 262 1539ft 0kts
19-Nov-20 14:27 33.404378 -118.414719 262 1539ft 0kts
19-Nov-20 14:28 33.404378 -118.414719 262 1539ft 0kts
19-Nov-20 14:29 33.404378 -118.414719 262 1539ft 0kts
19-Nov-20 14:30 33.404378 -118.414719 262 1539ft 0kts
19-Nov-20 14:31 33.404378 -118.414719 262 1539ft 0kts
19-Nov-20 14:32 33.404378 -118.414719 262 1539ft 0kts
19-Nov-20 14:33 33.404378 -118.414719 262 1539ft 0kts
19-Nov-20 14:34 33.404378 -118.414719 262 1539ft 0kts
19-Nov-20 14:35 33.404378 -118.414719 262 1539ft 0kts
19-Nov-20 14:36 33.404378 -118.414719 262 1539ft 0kts
19-Nov-20 14:37 33.404378 -118.414719 262 1539ft 0kts
19-Nov-20 14:38 33.404378 -118.414719 262 1539ft 0kts
19-Nov-20 14:39 33.404378 -118.414719 262 1539ft 0kts
19-Nov-20 14:40 33.404378 -118.414719 262 1539ft 0kts
19-Nov-20 14:44 33.404378 -118.414719 262 1539ft 0kts
19-Nov-20 14:45 33.404391 -118.414869 289 1541ft 3kts
19-Nov-20 14:46 33.407200 -118.411404 11 1498ft 0kts
19-Nov-20 14:47 33.406269 -118.413592 236 1522ft 51kts
19-Nov-20 14:48 33.392023 -118.438369 233 1975ft 114kts
19-Nov-20 14:49 33.363659 -118.459615 150 2296ft 148kts
19-Nov-20 14:50 33.365041 -118.414465 69 2797ft 151kts
19-Nov-20 14:51 33.367488 -118.364844 97 3302ft 152kts
19-Nov-20 14:52 33.361294 -118.314981 99 3799ft 151kts
19-Nov-20 14:53 33.354791 -118.265234 99 4296ft 151kts
19-Nov-20 14:54 33.348308 -118.215889 99 4789ft 150kts
19-Nov-20 14:55 33.341319 -118.162879 99 4828ft 170kts
19-Nov-20 14:56 33.333733 -118.105581 99 4862ft 176kts
19-Nov-20 14:57 33.325960 -118.047034 99 4862ft 179kts
19-Nov-20 14:58 33.318014 -117.987503 99 4864ft 186kts
19-Nov-20 14:59 33.309524 -117.924129 99 4863ft 197kts
19-Nov-20 14:59 33.302191 -117.869507 99 4862ft 200kts
19-Nov-20 15:01 33.291745 -117.792549 99 4862ft 201kts
19-Nov-20 15:02 33.282451 -117.726544 100 4862ft 201kts
19-Nov-20 15:03 33.272531 -117.660610 100 4859ft 201kts
19-Nov-20 15:03 33.264231 -117.605680 100 4862ft 201kts
19-Nov-20 15:04 33.255281 -117.539497 98 4852ft 201kts
19-Nov-20 15:05 33.247219 -117.473050 98 4853ft 201kts
19-Nov-20 15:06 33.229129 -117.413123 169 4222ft 225kts
19-Nov-20 15:07 33.177434 -117.398066 134 4864ft 196kts
19-Nov-20 15:08 33.127571 -117.370339 160 4852ft 200kts
19-Nov-20 15:09 33.074904 -117.348078 160 4852ft 201kts
19-Nov-20 15:10 33.021926 -117.325834 161 4853ft 201kts
19-Nov-20 15:11 32.969165 -117.303704 161 4853ft 201kts
19-Nov-20 15:12 32.916248 -117.281539 161 4852ft 201kts
19-Nov-20 15:13 32.868013 -117.261307 161 4846ft 159kts
19-Nov-20 15:14 32.830089 -117.245456 161 4850ft 134kts
19-Nov-20 15:15 32.800090 -117.224002 102 4857ft 134kts
19-Nov-20 15:16 32.791216 -117.180282 103 4853ft 137kts
19-Nov-20 15:17 32.782324 -117.135938 103 4853ft 138kts
19-Nov-20 15:18 32.773395 -117.091373 103 4853ft 138kts
19-Nov-20 15:19 32.764546 -117.047150 103 4853ft 136kts
19-Nov-20 15:20 32.755843 -117.003627 103 4853ft 135kts
19-Nov-20 15:21 32.747162 -116.960175 103 4853ft 135kts
19-Nov-20 15:22 32.738508 -116.916830 103 4853ft 134kts
19-Nov-20 15:23 32.726283 -116.875794 154 4801ft 138kts
19-Nov-20 15:24 32.685197 -116.881874 190 4138ft 151kts
19-Nov-20 15:25 32.666283 -116.913241 286 3851ft 111kts
19-Nov-20 15:26 32.672541 -116.942974 284 3701ft 91kts
19-Nov-20 15:27 32.678872 -116.972793 284 3450ft 87kts
19-Nov-20 15:28 32.687629 -117.003959 289 2908ft 110kts
19-Nov-20 15:29 32.696580 -117.037904 287 2545ft 93kts
19-Nov-20 15:30 32.704235 -117.069059 286 1988ft 105kts
19-Nov-20 15:31 32.711750 -117.099895 286 1475ft 94kts
19-Nov-20 15:32 32.719187 -117.130439 286 884ft 99kts
19-Nov-20 15:33 32.725992 -117.158584 286 444ft 72kts
19-Nov-20 15:34 32.731537 -117.181300 286 32ft 64kts
19-Nov-20 15:35 32.732745 -117.188511 209 20ft 0kts
19-Nov-20 15:36 32.731916 -117.190898 203 20ft 4kts
19-Nov-20 15:37 32.731859 -117.190925 200 20ft 0kts

Navigation Log

Ident Type
Flight plan parsing failed, navigation log unavailable